PWSweather.com
Personal Weather Stations
Station Observations

SkegnessGB

Lat: 53.147585, Lon: 0.345774

Elevation: 18

Station Type: Fine Offset WH3080

http://www.skegnessweather.info/

High Low Average
Temperature 55.9°F13.3°C 46.4°F8.0°C 50.7°F10.4°C
Dew Point 52.3°F11.3°C 44.0°F6.7°C 48.2°F9.0°C
Winds 14.5 mph 23.3 kmh 1.1 mph 1.8 kmh 7.0 mph SSW11.3 kmh SSW
Wind Gusts 16.7 mph26.9 kmh 2.5 mph4.0 kmh 9.0 mph14.5 kmh
Humidity 100% 69% 92%
Pressure 29.93 in1013.5 mb 29.62 in1003.0 mb -
Precipitation 0.35 in8.9 mm - -
Hour Temp Dew Point Humidity Winds Wind Gusts Pressure Precip Precip Rate Daily Precip Total
12:00 AM 50.7°F10.4°C 47.0°F8.3°C 87% 11.8 mph SW19.0 kmh SW 14.3 mph23.0 kmh 29.86 in1011.2 mb 0.00 in0.0 mm 0.00 in0.0 mm 0.00 in0.0 mm
12:10 AM 50.7°F10.4°C 47.3°F8.5°C 88% 12.9 mph W20.8 kmh W 13.3 mph21.4 kmh 29.86 in1011.2 mb 0.00 in0.0 mm 0.00 in0.0 mm 0.00 in0.0 mm
12:20 AM 50.7°F10.4°C 47.3°F8.5°C 88% 9.5 mph SSW15.3 kmh SSW 11.8 mph19.0 kmh 29.86 in1011.2 mb 0.00 in0.0 mm 0.00 in0.0 mm 0.00 in0.0 mm
12:30 AM 50.5°F10.3°C 47.1°F8.4°C 88% 8.8 mph SSW14.2 kmh SSW 13.3 mph21.4 kmh 29.87 in1011.5 mb 0.00 in0.0 mm 0.00 in0.0 mm 0.00 in0.0 mm
12:40 AM 50.5°F10.3°C 47.4°F8.6°C 89% 8.5 mph WSW13.7 kmh WSW 10.1 mph16.3 kmh 29.86 in1011.2 mb 0.00 in0.0 mm 0.00 in0.0 mm 0.00 in0.0 mm
12:50 AM 50.4°F10.2°C 47.2°F8.4°C 89% 9.3 mph WSW15.0 kmh WSW 10.8 mph17.4 kmh 29.87 in1011.5 mb 0.00 in0.0 mm 0.00 in0.0 mm 0.00 in0.0 mm
01:00 AM 50.5°F10.3°C 47.4°F8.6°C 89% 9.3 mph WSW15.0 kmh WSW 12.5 mph20.1 kmh 29.86 in1011.2 mb 0.00 in0.0 mm 0.00 in0.0 mm 0.00 in0.0 mm
01:10 AM 50.5°F10.3°C 47.7°F8.7°C 90% 8.1 mph S13.0 kmh S 10.1 mph16.3 kmh 29.87 in1011.5 mb 0.00 in0.0 mm 0.00 in0.0 mm 0.00 in0.0 mm
01:20 AM 50.4°F10.2°C 47.5°F8.6°C 90% 8.5 mph SSW13.7 kmh SSW 10.1 mph16.3 kmh 29.86 in1011.2 mb 0.00 in0.0 mm 0.00 in0.0 mm 0.00 in0.0 mm
01:30 AM 50.4°F10.2°C 47.5°F8.6°C 90% 7.4 mph SW11.9 kmh SW 9.1 mph14.6 kmh 29.86 in1011.2 mb 0.00 in0.0 mm 0.00 in0.0 mm 0.00 in0.0 mm
01:40 AM 50.4°F10.2°C 47.5°F8.6°C 90% 4.0 mph S6.4 kmh S 4.9 mph7.9 kmh 29.86 in1011.2 mb 0.00 in0.0 mm 0.00 in0.0 mm 0.00 in0.0 mm
01:50 AM 50.4°F10.2°C 47.8°F8.8°C 91% 6.3 mph SSW10.1 kmh SSW 7.6 mph12.2 kmh 29.86 in1011.2 mb 0.00 in0.0 mm 0.00 in0.0 mm 0.00 in0.0 mm
02:00 AM 50.4°F10.2°C 47.8°F8.8°C 91% 4.7 mph NW7.6 kmh NW 5.9 mph9.5 kmh 29.87 in1011.5 mb 0.00 in0.0 mm 0.00 in0.0 mm 0.00 in0.0 mm
02:10 AM 50.2°F10.1°C 47.9°F8.8°C 92% 4.1 mph SW6.6 kmh SW 4.9 mph7.9 kmh 29.87 in1011.5 mb 0.00 in0.0 mm 0.00 in0.0 mm 0.00 in0.0 mm
02:20 AM 50.2°F10.1°C 47.9°F8.8°C 92% 3.4 mph SW5.5 kmh SW 4.9 mph7.9 kmh 29.87 in1011.5 mb 0.00 in0.0 mm 0.00 in0.0 mm 0.00 in0.0 mm
02:30 AM 50.2°F10.1°C 47.9°F8.8°C 92% 5.4 mph SSW8.7 kmh SSW 6.6 mph10.6 kmh 29.87 in1011.5 mb 0.00 in0.0 mm 0.00 in0.0 mm 0.00 in0.0 mm
02:40 AM 50.0°F10.0°C 47.8°F8.8°C 92% 5.6 mph SW9.0 kmh SW 6.6 mph10.6 kmh 29.87 in1011.5 mb 0.00 in0.0 mm 0.00 in0.0 mm 0.00 in0.0 mm
02:50 AM 50.0°F10.0°C 47.8°F8.8°C 92% 4.7 mph SW7.6 kmh SW 4.9 mph7.9 kmh 29.87 in1011.5 mb 0.00 in0.0 mm 0.00 in0.0 mm 0.00 in0.0 mm
03:00 AM 49.8°F9.9°C 47.9°F8.8°C 93% 5.3 mph SW8.5 kmh SW 6.6 mph10.6 kmh 29.87 in1011.5 mb 0.00 in0.0 mm 0.00 in0.0 mm 0.00 in0.0 mm
03:10 AM 49.6°F9.8°C 47.7°F8.7°C 93% 3.5 mph S5.6 kmh S 4.2 mph6.8 kmh 29.87 in1011.5 mb 0.00 in0.0 mm 0.00 in0.0 mm 0.00 in0.0 mm
03:20 AM 49.5°F9.7°C 47.5°F8.6°C 93% 4.6 mph SW7.4 kmh SW 4.9 mph7.9 kmh 29.88 in1011.9 mb 0.00 in0.0 mm 0.00 in0.0 mm 0.00 in0.0 mm
03:30 AM 49.1°F9.5°C 47.2°F8.4°C 93% 3.5 mph W5.6 kmh W 4.9 mph7.9 kmh 29.87 in1011.5 mb 0.00 in0.0 mm 0.00 in0.0 mm 0.00 in0.0 mm
03:40 AM 49.1°F9.5°C 47.4°F8.6°C 94% 3.8 mph WSW6.1 kmh WSW 4.9 mph7.9 kmh 29.87 in1011.5 mb 0.00 in0.0 mm 0.00 in0.0 mm 0.00 in0.0 mm
03:50 AM 49.1°F9.5°C 47.4°F8.6°C 94% 3.1 mph S5.0 kmh S 4.2 mph6.8 kmh 29.87 in1011.5 mb 0.00 in0.0 mm 0.00 in0.0 mm 0.00 in0.0 mm
04:00 AM 49.1°F9.5°C 47.7°F8.7°C 95% 2.7 mph WSW4.3 kmh WSW 4.2 mph6.8 kmh 29.86 in1011.2 mb 0.00 in0.0 mm 0.00 in0.0 mm 0.00 in0.0 mm
04:10 AM 48.9°F9.4°C 47.6°F8.7°C 95% 1.4 mph SW2.3 kmh SW 2.5 mph4.0 kmh 29.86 in1011.2 mb 0.00 in0.0 mm 0.00 in0.0 mm 0.00 in0.0 mm
04:20 AM 48.7°F9.3°C 47.4°F8.6°C 95% 1.8 mph WSW2.9 kmh WSW 2.5 mph4.0 kmh 29.86 in1011.2 mb 0.00 in0.0 mm 0.00 in0.0 mm 0.00 in0.0 mm
04:30 AM 48.7°F9.3°C 47.4°F8.6°C 95% 1.8 mph SSW2.9 kmh SSW 3.4 mph5.5 kmh 29.86 in1011.2 mb 0.00 in0.0 mm 0.00 in0.0 mm 0.00 in0.0 mm
04:40 AM 48.7°F9.3°C 47.7°F8.7°C 96% 1.4 mph SW2.3 kmh SW 2.5 mph4.0 kmh 29.87 in1011.5 mb 0.00 in0.0 mm 0.00 in0.0 mm 0.00 in0.0 mm
04:50 AM 48.7°F9.3°C 47.7°F8.7°C 96% 1.5 mph SW2.4 kmh SW 2.5 mph4.0 kmh 29.88 in1011.9 mb 0.00 in0.0 mm 0.00 in0.0 mm 0.00 in0.0 mm
05:00 AM 48.7°F9.3°C 47.7°F8.7°C 96% 2.0 mph SW3.2 kmh SW 3.4 mph5.5 kmh 29.88 in1011.9 mb 0.00 in0.0 mm 0.00 in0.0 mm 0.00 in0.0 mm
05:10 AM 48.7°F9.3°C 47.7°F8.7°C 96% 1.2 mph S1.9 kmh S 2.5 mph4.0 kmh 29.89 in1012.2 mb 0.00 in0.0 mm 0.00 in0.0 mm 0.00 in0.0 mm
05:20 AM 48.7°F9.3°C 47.7°F8.7°C 96% 1.6 mph S2.6 kmh S 2.5 mph4.0 kmh 29.90 in1012.5 mb 0.00 in0.0 mm 0.00 in0.0 mm 0.00 in0.0 mm
05:30 AM 48.7°F9.3°C 47.7°F8.7°C 96% 3.1 mph SSW5.0 kmh SSW 5.9 mph9.5 kmh 29.89 in1012.2 mb 0.00 in0.0 mm 0.00 in0.0 mm 0.00 in0.0 mm
05:40 AM 48.7°F9.3°C 47.7°F8.7°C 96% 3.3 mph SW5.3 kmh SW 4.2 mph6.8 kmh 29.89 in1012.2 mb 0.00 in0.0 mm 0.00 in0.0 mm 0.00 in0.0 mm
05:50 AM 48.9°F9.4°C 47.8°F8.8°C 96% 4.3 mph S6.9 kmh S 5.9 mph9.5 kmh 29.90 in1012.5 mb 0.00 in0.0 mm 0.00 in0.0 mm 0.00 in0.0 mm
06:00 AM 49.1°F9.5°C 47.7°F8.7°C 95% 5.4 mph WSW8.7 kmh WSW 6.6 mph10.6 kmh 29.90 in1012.5 mb 0.00 in0.0 mm 0.00 in0.0 mm 0.00 in0.0 mm
06:10 AM 49.1°F9.5°C 47.4°F8.6°C 94% 5.4 mph SW8.7 kmh SW 5.9 mph9.5 kmh 29.90 in1012.5 mb 0.00 in0.0 mm 0.00 in0.0 mm 0.00 in0.0 mm
06:20 AM 49.1°F9.5°C 47.2°F8.4°C 93% 4.8 mph SW7.7 kmh SW 5.9 mph9.5 kmh 29.90 in1012.5 mb 0.00 in0.0 mm 0.00 in0.0 mm 0.00 in0.0 mm
06:30 AM 49.6°F9.8°C 47.4°F8.6°C 92% 5.8 mph S9.3 kmh S 8.4 mph13.5 kmh 29.90 in1012.5 mb 0.00 in0.0 mm 0.00 in0.0 mm 0.00 in0.0 mm
06:40 AM 49.8°F9.9°C 47.0°F8.3°C 90% 6.4 mph WNW10.3 kmh WNW 6.6 mph10.6 kmh 29.90 in1012.5 mb 0.00 in0.0 mm 0.00 in0.0 mm 0.00 in0.0 mm
06:50 AM 49.6°F9.8°C 46.2°F7.9°C 88% 5.2 mph SSW8.4 kmh SSW 6.6 mph10.6 kmh 29.91 in1012.9 mb 0.00 in0.0 mm 0.00 in0.0 mm 0.00 in0.0 mm
07:00 AM 49.6°F9.8°C 45.9°F7.7°C 87% 5.6 mph SW9.0 kmh SW 8.4 mph13.5 kmh 29.92 in1013.2 mb 0.00 in0.0 mm 0.00 in0.0 mm 0.00 in0.0 mm
07:10 AM 50.0°F10.0°C 46.3°F7.9°C 87% 4.9 mph SW7.9 kmh SW 5.9 mph9.5 kmh 29.92 in1013.2 mb 0.00 in0.0 mm 0.00 in0.0 mm 0.00 in0.0 mm
07:20 AM 50.2°F10.1°C 46.2°F7.9°C 86% 5.7 mph S9.2 kmh S 5.9 mph9.5 kmh 29.92 in1013.2 mb 0.00 in0.0 mm 0.00 in0.0 mm 0.00 in0.0 mm
07:30 AM 50.4°F10.2°C 46.0°F7.8°C 85% 4.7 mph SW7.6 kmh SW 7.6 mph12.2 kmh 29.92 in1013.2 mb 0.00 in0.0 mm 0.00 in0.0 mm 0.00 in0.0 mm
07:40 AM 50.5°F10.3°C 45.9°F7.7°C 84% 6.4 mph SW10.3 kmh SW 10.8 mph17.4 kmh 29.92 in1013.2 mb 0.00 in0.0 mm 0.00 in0.0 mm 0.00 in0.0 mm
07:50 AM 50.9°F10.5°C 46.2°F7.9°C 84% 5.8 mph SSW9.3 kmh SSW 8.4 mph13.5 kmh 29.92 in1013.2 mb 0.00 in0.0 mm 0.00 in0.0 mm 0.00 in0.0 mm
08:00 AM 51.4°F10.8°C 46.4°F8.0°C 83% 5.5 mph SW8.9 kmh SW 5.9 mph9.5 kmh 29.93 in1013.5 mb 0.00 in0.0 mm 0.00 in0.0 mm 0.00 in0.0 mm
08:10 AM 51.4°F10.8°C 46.1°F7.8°C 82% 8.0 mph N12.9 kmh N 6.6 mph10.6 kmh 29.93 in1013.5 mb 0.00 in0.0 mm 0.00 in0.0 mm 0.00 in0.0 mm
08:20 AM 51.4°F10.8°C 46.1°F7.8°C 82% 8.0 mph SW12.9 kmh SW 12.5 mph20.1 kmh 29.93 in1013.5 mb 0.00 in0.0 mm 0.00 in0.0 mm 0.00 in0.0 mm
08:30 AM 51.3°F10.7°C 45.6°F7.6°C 81% 7.6 mph WSW12.2 kmh WSW 10.1 mph16.3 kmh 29.93 in1013.5 mb 0.00 in0.0 mm 0.00 in0.0 mm 0.00 in0.0 mm
08:40 AM 51.6°F10.9°C 45.7°F7.6°C 80% 7.3 mph WSW11.7 kmh WSW 8.4 mph13.5 kmh 29.93 in1013.5 mb 0.00 in0.0 mm 0.00 in0.0 mm 0.00 in0.0 mm
08:50 AM 51.6°F10.9°C 45.3°F7.4°C 79% 7.8 mph SW12.6 kmh SW 9.1 mph14.6 kmh 29.93 in1013.5 mb 0.00 in0.0 mm 0.00 in0.0 mm 0.00 in0.0 mm
09:00 AM 51.8°F11.0°C 44.5°F6.9°C 76% 6.9 mph W11.1 kmh W 8.4 mph13.5 kmh 29.93 in1013.5 mb 0.00 in0.0 mm 0.00 in0.0 mm 0.00 in0.0 mm
09:10 AM 51.8°F11.0°C 44.1°F6.7°C 75% 6.1 mph S9.8 kmh S 7.6 mph12.2 kmh 29.93 in1013.5 mb 0.00 in0.0 mm 0.00 in0.0 mm 0.00 in0.0 mm
09:20 AM 51.6°F10.9°C 45.3°F7.4°C 79% 6.1 mph SW9.8 kmh SW 6.6 mph10.6 kmh 29.93 in1013.5 mb 0.00 in0.0 mm 0.00 in0.0 mm 0.00 in0.0 mm
09:30 AM 52.0°F11.1°C 44.3°F6.8°C 75% 6.4 mph SW10.3 kmh SW 7.6 mph12.2 kmh 29.93 in1013.5 mb 0.00 in0.0 mm 0.00 in0.0 mm 0.00 in0.0 mm
09:40 AM 52.3°F11.3°C 44.3°F6.8°C 74% 5.8 mph S9.3 kmh S 7.6 mph12.2 kmh 29.92 in1013.2 mb 0.00 in0.0 mm 0.00 in0.0 mm 0.00 in0.0 mm
09:50 AM 52.5°F11.4°C 44.5°F6.9°C 74% 6.0 mph SW9.7 kmh SW 7.6 mph12.2 kmh 29.93 in1013.5 mb 0.00 in0.0 mm 0.00 in0.0 mm 0.00 in0.0 mm
10:00 AM 52.7°F11.5°C 44.3°F6.8°C 73% 6.6 mph SW10.6 kmh SW 8.4 mph13.5 kmh 29.92 in1013.2 mb 0.00 in0.0 mm 0.00 in0.0 mm 0.00 in0.0 mm
10:10 AM 53.8°F12.1°C 45.0°F7.2°C 72% 6.0 mph WSW9.7 kmh WSW 7.6 mph12.2 kmh 29.92 in1013.2 mb 0.00 in0.0 mm 0.00 in0.0 mm 0.00 in0.0 mm
10:20 AM 54.0°F12.2°C 45.1°F7.3°C 72% 7.0 mph SSW11.3 kmh SSW 8.4 mph13.5 kmh 29.93 in1013.5 mb 0.00 in0.0 mm 0.00 in0.0 mm 0.00 in0.0 mm
10:30 AM 54.0°F12.2°C 44.8°F7.1°C 71% 7.6 mph E12.2 kmh E 9.1 mph14.6 kmh 29.93 in1013.5 mb 0.00 in0.0 mm 0.00 in0.0 mm 0.00 in0.0 mm
10:40 AM 53.8°F12.1°C 44.2°F6.8°C 70% 8.5 mph N13.7 kmh N 9.1 mph14.6 kmh 29.92 in1013.2 mb 0.00 in0.0 mm 0.00 in0.0 mm 0.00 in0.0 mm
10:50 AM 54.1°F12.3°C 44.2°F6.8°C 69% 8.4 mph SW13.5 kmh SW 9.1 mph14.6 kmh 29.92 in1013.2 mb 0.00 in0.0 mm 0.00 in0.0 mm 0.00 in0.0 mm
11:00 AM 54.5°F12.5°C 44.5°F6.9°C 69% 7.1 mph SW11.4 kmh SW 10.8 mph17.4 kmh 29.92 in1013.2 mb 0.00 in0.0 mm 0.00 in0.0 mm 0.00 in0.0 mm
11:10 AM 54.0°F12.2°C 44.0°F6.7°C 69% 7.8 mph WSW12.6 kmh WSW 9.1 mph14.6 kmh 29.92 in1013.2 mb 0.00 in0.0 mm 0.00 in0.0 mm 0.00 in0.0 mm
11:20 AM 54.7°F12.6°C 45.5°F7.5°C 71% 6.7 mph SW10.8 kmh SW 9.1 mph14.6 kmh 29.91 in1012.9 mb 0.00 in0.0 mm 0.00 in0.0 mm 0.00 in0.0 mm
11:30 AM 55.6°F13.1°C 45.6°F7.6°C 69% 7.4 mph S11.9 kmh S 11.8 mph19.0 kmh 29.91 in1012.9 mb 0.00 in0.0 mm 0.00 in0.0 mm 0.00 in0.0 mm
11:40 AM 55.9°F13.3°C 46.7°F8.2°C 71% 7.4 mph SW11.9 kmh SW 10.8 mph17.4 kmh 29.91 in1012.9 mb 0.00 in0.0 mm 0.00 in0.0 mm 0.00 in0.0 mm
11:50 AM 55.6°F13.1°C 46.7°F8.2°C 72% 7.7 mph SW12.4 kmh SW 9.1 mph14.6 kmh 29.90 in1012.5 mb 0.00 in0.0 mm 0.00 in0.0 mm 0.00 in0.0 mm
12:00 PM 55.2°F12.9°C 47.1°F8.4°C 74% 6.9 mph SW11.1 kmh SW 9.1 mph14.6 kmh 29.90 in1012.5 mb 0.00 in0.0 mm 0.00 in0.0 mm 0.00 in0.0 mm
12:10 PM 54.3°F12.4°C 46.9°F8.3°C 76% 9.0 mph S14.5 kmh S 9.1 mph14.6 kmh 29.90 in1012.5 mb 0.00 in0.0 mm 0.00 in0.0 mm 0.00 in0.0 mm
12:20 PM 54.0°F12.2°C 47.9°F8.8°C 80% 7.6 mph SSW12.2 kmh SSW 8.4 mph13.5 kmh 29.90 in1012.5 mb 0.00 in0.0 mm 0.00 in0.0 mm 0.00 in0.0 mm
12:30 PM 54.0°F12.2°C 48.6°F9.2°C 82% 5.8 mph W9.3 kmh W 7.6 mph12.2 kmh 29.90 in1012.5 mb 0.00 in0.0 mm 0.00 in0.0 mm 0.00 in0.0 mm
12:40 PM 54.0°F12.2°C 49.2°F9.6°C 84% 5.4 mph SE8.7 kmh SE 7.6 mph12.2 kmh 29.89 in1012.2 mb 0.00 in0.0 mm 0.00 in0.0 mm 0.00 in0.0 mm
12:50 PM 53.4°F11.9°C 48.1°F8.9°C 82% 7.1 mph S11.4 kmh S 8.4 mph13.5 kmh 29.89 in1012.2 mb 0.00 in0.0 mm 0.00 in0.0 mm 0.00 in0.0 mm
01:00 PM 53.2°F11.8°C 47.9°F8.8°C 82% 5.3 mph WSW8.5 kmh WSW 8.4 mph13.5 kmh 29.89 in1012.2 mb 0.00 in0.0 mm 0.00 in0.0 mm 0.00 in0.0 mm
01:10 PM 52.5°F11.4°C 47.5°F8.6°C 83% 4.9 mph W7.9 kmh W 5.9 mph9.5 kmh 29.88 in1011.9 mb 0.00 in0.0 mm 0.00 in0.0 mm 0.00 in0.0 mm
01:20 PM 52.0°F11.1°C 48.2°F9.0°C 87% 6.1 mph SW9.8 kmh SW 9.1 mph14.6 kmh 29.88 in1011.9 mb 0.00 in0.0 mm 0.00 in0.0 mm 0.00 in0.0 mm
01:30 PM 51.6°F10.9°C 49.9°F9.9°C 94% 10.0 mph SSW16.1 kmh SSW 15.0 mph24.1 kmh 29.87 in1011.5 mb 0.01 in0.3 mm 0.06 in1.5 mm 0.01 in0.3 mm
01:40 PM 51.3°F10.7°C 50.2°F10.1°C 96% 12.6 mph S20.3 kmh S 15.0 mph24.1 kmh 29.87 in1011.5 mb 0.01 in0.3 mm 0.00 in0.0 mm 0.01 in0.3 mm
01:50 PM 51.1°F10.6°C 50.3°F10.2°C 97% 11.3 mph S18.2 kmh S 14.3 mph23.0 kmh 29.86 in1011.2 mb 0.01 in0.3 mm 0.00 in0.0 mm 0.01 in0.3 mm
02:00 PM 51.1°F10.6°C 50.8°F10.4°C 99% 8.9 mph S14.3 kmh S 9.1 mph14.6 kmh 29.85 in1010.8 mb 0.01 in0.3 mm 0.00 in0.0 mm 0.01 in0.3 mm
02:10 PM 50.9°F10.5°C 50.9°F10.5°C 100% 10.2 mph SW16.4 kmh SW 8.4 mph13.5 kmh 29.85 in1010.8 mb 0.01 in0.3 mm 0.00 in0.0 mm 0.01 in0.3 mm
02:20 PM 50.9°F10.5°C 50.9°F10.5°C 100% 6.6 mph S10.6 kmh S 7.6 mph12.2 kmh 29.84 in1010.5 mb 0.02 in0.5 mm 0.06 in1.5 mm 0.02 in0.5 mm
02:30 PM 50.5°F10.3°C 50.5°F10.3°C 100% 8.9 mph S14.3 kmh S 10.1 mph16.3 kmh 29.85 in1010.8 mb 0.02 in0.5 mm 0.00 in0.0 mm 0.04 in1.0 mm
02:40 PM 50.2°F10.1°C 50.2°F10.1°C 100% 10.8 mph S17.4 kmh S 11.8 mph19.0 kmh 29.84 in1010.5 mb 0.02 in0.5 mm 0.00 in0.0 mm 0.04 in1.0 mm
02:50 PM 50.2°F10.1°C 50.2°F10.1°C 100% 10.6 mph S17.1 kmh S 13.3 mph21.4 kmh 29.84 in1010.5 mb 0.04 in1.0 mm 0.12 in3.0 mm 0.05 in1.3 mm
03:00 PM 50.2°F10.1°C 50.2°F10.1°C 100% 10.3 mph S16.6 kmh S 10.8 mph17.4 kmh 29.83 in1010.2 mb 0.05 in1.3 mm 0.01 in0.3 mm 0.06 in1.5 mm
03:10 PM 50.0°F10.0°C 50.0°F10.0°C 100% 9.4 mph S15.1 kmh S 10.1 mph16.3 kmh 29.82 in1009.8 mb 0.06 in1.5 mm 0.06 in1.5 mm 0.07 in1.8 mm
03:20 PM 50.0°F10.0°C 50.0°F10.0°C 100% 7.7 mph SE12.4 kmh SE 10.1 mph16.3 kmh 29.82 in1009.8 mb 0.06 in1.5 mm 0.00 in0.0 mm 0.08 in2.0 mm
03:30 PM 49.8°F9.9°C 49.8°F9.9°C 100% 7.7 mph S12.4 kmh S 8.4 mph13.5 kmh 29.81 in1009.5 mb 0.06 in1.5 mm 0.00 in0.0 mm 0.09 in2.3 mm
03:40 PM 49.8°F9.9°C 49.8°F9.9°C 100% 7.6 mph SSW12.2 kmh SSW 7.6 mph12.2 kmh 29.80 in1009.1 mb 0.07 in1.8 mm 0.06 in1.5 mm 0.11 in2.8 mm
03:50 PM 49.8°F9.9°C 49.8°F9.9°C 100% 5.9 mph SSE9.5 kmh SSE 6.6 mph10.6 kmh 29.79 in1008.8 mb 0.07 in1.8 mm 0.00 in0.0 mm 0.12 in3.0 mm
04:00 PM 49.5°F9.7°C 49.5°F9.7°C 100% 6.8 mph SE10.9 kmh SE 7.6 mph12.2 kmh 29.79 in1008.8 mb 0.06 in1.5 mm 0.00 in0.0 mm 0.12 in3.0 mm
04:10 PM 49.3°F9.6°C 49.3°F9.6°C 100% 6.5 mph SE10.5 kmh SE 5.9 mph9.5 kmh 29.78 in1008.5 mb 0.07 in1.8 mm 0.06 in1.5 mm 0.14 in3.6 mm
04:20 PM 49.1°F9.5°C 49.1°F9.5°C 100% 6.4 mph S10.3 kmh S 7.6 mph12.2 kmh 29.77 in1008.1 mb 0.07 in1.8 mm 0.00 in0.0 mm 0.15 in3.8 mm
04:30 PM 49.3°F9.6°C 49.3°F9.6°C 100% 5.1 mph S8.2 kmh S 7.6 mph12.2 kmh 29.76 in1007.8 mb 0.07 in1.8 mm 0.00 in0.0 mm 0.17 in4.3 mm
04:40 PM 49.3°F9.6°C 49.3°F9.6°C 100% 6.4 mph SSE10.3 kmh SSE 7.6 mph12.2 kmh 29.75 in1007.5 mb 0.07 in1.8 mm 0.00 in0.0 mm 0.18 in4.6 mm
04:50 PM 49.1°F9.5°C 49.1°F9.5°C 100% 4.3 mph S6.9 kmh S 6.6 mph10.6 kmh 29.76 in1007.8 mb 0.07 in1.8 mm 0.00 in0.0 mm 0.19 in4.8 mm
05:00 PM 49.1°F9.5°C 49.1°F9.5°C 100% 1.1 mph SSE1.8 kmh SSE 3.4 mph5.5 kmh 29.76 in1007.8 mb 0.09 in2.3 mm 0.02 in0.5 mm 0.21 in5.3 mm
05:10 PM 49.1°F9.5°C 49.1°F9.5°C 100% 1.1 mph S1.8 kmh S 2.5 mph4.0 kmh 29.75 in1007.5 mb 0.13 in3.3 mm 0.24 in6.1 mm 0.27 in6.9 mm
05:20 PM 48.9°F9.4°C 48.9°F9.4°C 100% 3.5 mph SE5.6 kmh SE 5.9 mph9.5 kmh 29.73 in1006.8 mb 0.15 in3.8 mm 0.12 in3.0 mm 0.31 in7.9 mm
05:30 PM 48.9°F9.4°C 48.9°F9.4°C 100% 9.2 mph S14.8 kmh S 15.0 mph24.1 kmh 29.72 in1006.4 mb 0.14 in3.6 mm 0.00 in0.0 mm 0.31 in7.9 mm
05:40 PM 48.9°F9.4°C 48.9°F9.4°C 100% 6.5 mph SSE10.5 kmh SSE 10.1 mph16.3 kmh 29.71 in1006.1 mb 0.13 in3.3 mm 0.00 in0.0 mm 0.31 in7.9 mm
05:50 PM 48.9°F9.4°C 48.9°F9.4°C 100% 5.2 mph SW8.4 kmh SW 7.6 mph12.2 kmh 29.70 in1005.8 mb 0.12 in3.0 mm 0.00 in0.0 mm 0.31 in7.9 mm
06:00 PM 48.9°F9.4°C 48.9°F9.4°C 100% 3.2 mph WSW5.1 kmh WSW 4.9 mph7.9 kmh 29.69 in1005.4 mb 0.09 in2.3 mm 0.00 in0.0 mm 0.31 in7.9 mm
06:10 PM 48.9°F9.4°C 48.9°F9.4°C 100% 2.3 mph SE3.7 kmh SE 6.6 mph10.6 kmh 29.68 in1005.1 mb 0.05 in1.3 mm 0.00 in0.0 mm 0.32 in8.1 mm
06:20 PM 49.5°F9.7°C 49.5°F9.7°C 100% 8.1 mph S13.0 kmh S 10.1 mph16.3 kmh 29.67 in1004.7 mb 0.01 in0.3 mm 0.00 in0.0 mm 0.32 in8.1 mm
06:30 PM 50.0°F10.0°C 50.0°F10.0°C 100% 11.4 mph S18.3 kmh S 16.0 mph25.7 kmh 29.67 in1004.7 mb 0.01 in0.3 mm 0.00 in0.0 mm 0.32 in8.1 mm
06:40 PM 50.4°F10.2°C 50.4°F10.2°C 100% 13.3 mph S21.4 kmh S 13.3 mph21.4 kmh 29.67 in1004.7 mb 0.01 in0.3 mm 0.00 in0.0 mm 0.32 in8.1 mm
06:50 PM 50.5°F10.3°C 50.5°F10.3°C 100% 13.8 mph S22.2 kmh S 13.3 mph21.4 kmh 29.65 in1004.1 mb 0.02 in0.5 mm 0.06 in1.5 mm 0.33 in8.4 mm
07:00 PM 50.7°F10.4°C 50.7°F10.4°C 100% 12.4 mph S20.0 kmh S 14.3 mph23.0 kmh 29.65 in1004.1 mb 0.02 in0.5 mm 0.00 in0.0 mm 0.33 in8.4 mm
07:10 PM 51.1°F10.6°C 51.1°F10.6°C 100% 13.9 mph S22.4 kmh S 14.3 mph23.0 kmh 29.65 in1004.1 mb 0.01 in0.3 mm 0.00 in0.0 mm 0.33 in8.4 mm
07:20 PM 51.4°F10.8°C 51.4°F10.8°C 100% 13.2 mph S21.2 kmh S 12.5 mph20.1 kmh 29.64 in1003.7 mb 0.01 in0.3 mm 0.00 in0.0 mm 0.33 in8.4 mm
07:30 PM 51.6°F10.9°C 51.6°F10.9°C 100% 14.5 mph SSE23.3 kmh SSE 16.0 mph25.7 kmh 29.64 in1003.7 mb 0.01 in0.3 mm 0.00 in0.0 mm 0.33 in8.4 mm
07:40 PM 51.8°F11.0°C 51.8°F11.0°C 100% 11.9 mph SW19.2 kmh SW 14.3 mph23.0 kmh 29.63 in1003.4 mb 0.01 in0.3 mm 0.00 in0.0 mm 0.33 in8.4 mm
07:50 PM 52.0°F11.1°C 52.0°F11.1°C 100% 12.3 mph SSW19.8 kmh SSW 11.8 mph19.0 kmh 29.63 in1003.4 mb 0.00 in0.0 mm 0.00 in0.0 mm 0.33 in8.4 mm
08:00 PM 52.0°F11.1°C 52.0°F11.1°C 100% 13.4 mph SSE21.6 kmh SSE 14.3 mph23.0 kmh 29.62 in1003.0 mb 0.00 in0.0 mm 0.00 in0.0 mm 0.33 in8.4 mm
08:10 PM 52.2°F11.2°C 52.2°F11.2°C 100% 12.0 mph S19.3 kmh S 12.5 mph20.1 kmh 29.62 in1003.0 mb 0.00 in0.0 mm 0.00 in0.0 mm 0.33 in8.4 mm
08:20 PM 52.3°F11.3°C 52.3°F11.3°C 100% 9.9 mph SSE15.9 kmh SSE 14.3 mph23.0 kmh 29.62 in1003.0 mb 0.00 in0.0 mm 0.00 in0.0 mm 0.33 in8.4 mm
08:30 PM 52.3°F11.3°C 52.3°F11.3°C 100% 9.5 mph SW15.3 kmh SW 10.8 mph17.4 kmh 29.62 in1003.0 mb 0.00 in0.0 mm 0.00 in0.0 mm 0.33 in8.4 mm
08:40 PM 52.3°F11.3°C 52.3°F11.3°C 100% 9.9 mph WSW15.9 kmh WSW 14.3 mph23.0 kmh 29.62 in1003.0 mb 0.00 in0.0 mm 0.00 in0.0 mm 0.33 in8.4 mm
08:50 PM 52.3°F11.3°C 52.3°F11.3°C 100% 10.6 mph SW17.1 kmh SW 10.8 mph17.4 kmh 29.62 in1003.0 mb 0.00 in0.0 mm 0.00 in0.0 mm 0.33 in8.4 mm
09:00 PM 52.3°F11.3°C 52.3°F11.3°C 100% 9.9 mph S15.9 kmh S 10.8 mph17.4 kmh 29.62 in1003.0 mb 0.00 in0.0 mm 0.00 in0.0 mm 0.33 in8.4 mm
09:10 PM 52.3°F11.3°C 52.3°F11.3°C 100% 10.8 mph S17.4 kmh S 11.8 mph19.0 kmh 29.62 in1003.0 mb 0.00 in0.0 mm 0.00 in0.0 mm 0.33 in8.4 mm
09:20 PM 52.3°F11.3°C 52.3°F11.3°C 100% 10.3 mph S16.6 kmh S 16.7 mph26.9 kmh 29.62 in1003.0 mb 0.00 in0.0 mm 0.00 in0.0 mm 0.33 in8.4 mm
09:30 PM 52.3°F11.3°C 52.3°F11.3°C 100% 13.3 mph SSW21.4 kmh SSW 16.7 mph26.9 kmh 29.62 in1003.0 mb 0.00 in0.0 mm 0.00 in0.0 mm 0.33 in8.4 mm
09:40 PM 52.2°F11.2°C 52.2°F11.2°C 100% 10.0 mph S16.1 kmh S 13.3 mph21.4 kmh 29.62 in1003.0 mb 0.00 in0.0 mm 0.00 in0.0 mm 0.33 in8.4 mm
09:50 PM 52.0°F11.1°C 52.0°F11.1°C 100% 12.7 mph S20.4 kmh S 14.3 mph23.0 kmh 29.62 in1003.0 mb 0.00 in0.0 mm 0.00 in0.0 mm 0.33 in8.4 mm
10:00 PM 51.4°F10.8°C 51.4°F10.8°C 100% 9.8 mph SSE15.8 kmh SSE 11.8 mph19.0 kmh 29.62 in1003.0 mb 0.00 in0.0 mm 0.00 in0.0 mm 0.33 in8.4 mm
10:10 PM 50.5°F10.3°C 50.5°F10.3°C 100% 5.9 mph SW9.5 kmh SW 9.1 mph14.6 kmh 29.64 in1003.7 mb 0.01 in0.3 mm 0.06 in1.5 mm 0.34 in8.6 mm
10:20 PM 49.1°F9.5°C 49.1°F9.5°C 100% 6.2 mph SSE10.0 kmh SSE 9.1 mph14.6 kmh 29.65 in1004.1 mb 0.01 in0.3 mm 0.00 in0.0 mm 0.34 in8.6 mm
10:30 PM 48.2°F9.0°C 48.2°F9.0°C 100% 5.2 mph N8.4 kmh N 6.6 mph10.6 kmh 29.65 in1004.1 mb 0.01 in0.3 mm 0.00 in0.0 mm 0.34 in8.6 mm
10:40 PM 47.7°F8.7°C 47.7°F8.7°C 100% 5.0 mph SE8.0 kmh SE 7.6 mph12.2 kmh 29.65 in1004.1 mb 0.01 in0.3 mm 0.00 in0.0 mm 0.34 in8.6 mm
10:50 PM 47.3°F8.5°C 47.3°F8.5°C 100% 5.0 mph N8.0 kmh N 8.4 mph13.5 kmh 29.66 in1004.4 mb 0.02 in0.5 mm 0.06 in1.5 mm 0.35 in8.9 mm
11:00 PM 47.1°F8.4°C 47.1°F8.4°C 100% 4.2 mph WSW6.8 kmh WSW 5.9 mph9.5 kmh 29.67 in1004.7 mb 0.02 in0.5 mm 0.00 in0.0 mm 0.19 in4.8 mm
11:10 PM 46.9°F8.3°C 46.9°F8.3°C 100% 4.6 mph SE7.4 kmh SE 5.9 mph9.5 kmh 29.67 in1004.7 mb 0.01 in0.3 mm 0.00 in0.0 mm 0.19 in4.8 mm
11:20 PM 46.8°F8.2°C 46.8°F8.2°C 100% 4.2 mph W6.8 kmh W 4.2 mph6.8 kmh 29.68 in1005.1 mb 0.01 in0.3 mm 0.00 in0.0 mm 0.19 in4.8 mm
11:30 PM 46.6°F8.1°C 46.6°F8.1°C 100% 3.2 mph SSW5.1 kmh SSW 5.9 mph9.5 kmh 29.68 in1005.1 mb 0.01 in0.3 mm 0.00 in0.0 mm 0.19 in4.8 mm
11:40 PM 46.4°F8.0°C 46.4°F8.0°C 100% 3.7 mph SE6.0 kmh SE 5.9 mph9.5 kmh 29.68 in1005.1 mb 0.01 in0.3 mm 0.00 in0.0 mm 0.19 in4.8 mm
11:50 PM 46.4°F8.0°C 46.4°F8.0°C 100% 2.6 mph SE4.2 kmh SE 4.2 mph6.8 kmh 29.69 in1005.4 mb 0.00 in0.0 mm 0.00 in0.0 mm 0.19 in4.8 mm